sensor_id;sensor_type;location;lat;lon;timestamp;pressure;altitude;pressure_sealevel;temperature;humidity
23427;BME280;41148;45.420;10.952;2023-03-14T00:01:16;100115.34;;;11.66;73.31
23427;BME280;41148;45.420;10.952;2023-03-14T00:03:44;100116.00;;;11.93;72.45
23427;BME280;41148;45.420;10.952;2023-03-14T00:06:12;100127.22;;;11.81;72.91
23427;BME280;41148;45.420;10.952;2023-03-14T00:08:41;100116.91;;;11.72;73.38
23427;BME280;41148;45.420;10.952;2023-03-14T00:11:11;100107.53;;;11.62;74.06
23427;BME280;41148;45.420;10.952;2023-03-14T00:13:39;100100.03;;;11.71;73.64
23427;BME280;41148;45.420;10.952;2023-03-14T00:16:11;100102.75;;;11.70;73.39
23427;BME280;41148;45.420;10.952;2023-03-14T00:18:39;100106.41;;;11.67;73.82
23427;BME280;41148;45.420;10.952;2023-03-14T00:21:08;100115.59;;;11.60;73.98
23427;BME280;41148;45.420;10.952;2023-03-14T00:23:38;100115.34;;;11.66;73.69
23427;BME280;41148;45.420;10.952;2023-03-14T00:26:11;100087.91;;;11.63;73.68
23427;BME280;41148;45.420;10.952;2023-03-14T00:28:39;100085.25;;;11.63;73.87
23427;BME280;41148;45.420;10.952;2023-03-14T00:31:11;100093.13;;;11.66;73.75
23427;BME280;41148;45.420;10.952;2023-03-14T00:33:41;100088.63;;;11.68;73.70
23427;BME280;41148;45.420;10.952;2023-03-14T00:36:11;100074.81;;;11.57;74.12
23427;BME280;41148;45.420;10.952;2023-03-14T00:38:41;100077.13;;;11.66;73.86
23427;BME280;41148;45.420;10.952;2023-03-14T00:41:11;100052.13;;;11.68;73.54
23427;BME280;41148;45.420;10.952;2023-03-14T00:43:38;100042.84;;;11.77;73.29
23427;BME280;41148;45.420;10.952;2023-03-14T00:46:06;100025.03;;;11.78;73.40
23427;BME280;41148;45.420;10.952;2023-03-14T00:48:34;100013.63;;;11.74;73.27
23427;BME280;41148;45.420;10.952;2023-03-14T00:51:04;99999.88;;;11.63;73.67
23427;BME280;41148;45.420;10.952;2023-03-14T00:53:35;99988.19;;;11.65;73.41
23427;BME280;41148;45.420;10.952;2023-03-14T00:56:05;100004.69;;;11.75;73.23
23427;BME280;41148;45.420;10.952;2023-03-14T00:58:33;99993.84;;;11.80;72.93
23427;BME280;41148;45.420;10.952;2023-03-14T01:01:08;99993.75;;;12.01;72.12
23427;BME280;41148;45.420;10.952;2023-03-14T01:03:36;99974.69;;;11.90;72.15
23427;BME280;41148;45.420;10.952;2023-03-14T01:06:24;99966.25;;;11.99;71.95
23427;BME280;41148;45.420;10.952;2023-03-14T01:08:53;99965.66;;;11.93;72.26
23427;BME280;41148;45.420;10.952;2023-03-14T01:11:24;99979.00;;;11.93;72.67
23427;BME280;41148;45.420;10.952;2023-03-14T01:13:52;99972.88;;;11.91;72.70
23427;BME280;41148;45.420;10.952;2023-03-14T01:16:22;99969.44;;;11.89;72.48
23427;BME280;41148;45.420;10.952;2023-03-14T01:18:50;99974.47;;;11.95;72.55
23427;BME280;41148;45.420;10.952;2023-03-14T01:21:23;99970.94;;;11.94;72.52
23427;BME280;41148;45.420;10.952;2023-03-14T01:23:53;99978.53;;;12.03;72.21
23427;BME280;41148;45.420;10.952;2023-03-14T01:26:23;99947.28;;;12.06;71.40
23427;BME280;41148;45.420;10.952;2023-03-14T01:28:53;99928.84;;;12.20;70.63
23427;BME280;41148;45.420;10.952;2023-03-14T01:31:22;99940.28;;;12.03;71.21
23427;BME280;41148;45.420;10.952;2023-03-14T01:33:50;99942.97;;;12.03;70.61
23427;BME280;41148;45.420;10.952;2023-03-14T01:36:18;99938.94;;;12.13;70.06
23427;BME280;41148;45.420;10.952;2023-03-14T01:38:46;99924.88;;;12.10;70.14
23427;BME280;41148;45.420;10.952;2023-03-14T01:41:19;99919.88;;;12.02;70.18
23427;BME280;41148;45.420;10.952;2023-03-14T01:43:47;99909.03;;;12.05;69.92
23427;BME280;41148;45.420;10.952;2023-03-14T01:51:52;99871.59;;;11.88;69.34
23427;BME280;41148;45.420;10.952;2023-03-14T01:57:11;99859.75;;;11.93;68.71
23427;BME280;41148;45.420;10.952;2023-03-14T01:59:44;99867.84;;;11.92;68.99
23427;BME280;41148;45.420;10.952;2023-03-14T02:02:13;99853.56;;;11.93;69.04
23427;BME280;41148;45.420;10.952;2023-03-14T02:04:43;99845.91;;;11.85;69.35
23427;BME280;41148;45.420;10.952;2023-03-14T02:07:17;99848.72;;;11.82;69.55
23427;BME280;41148;45.420;10.952;2023-03-14T02:09:58;99831.84;;;11.82;69.42
23427;BME280;41148;45.420;10.952;2023-03-14T02:12:31;99819.38;;;11.82;69.44
23427;BME280;41148;45.420;10.952;2023-03-14T02:15:18;99797.41;;;11.75;69.55
23427;BME280;41148;45.420;10.952;2023-03-14T02:18:08;99817.63;;;11.81;69.58
23427;BME280;41148;45.420;10.952;2023-03-14T02:26:28;99825.56;;;12.01;69.16
23427;BME280;41148;45.420;10.952;2023-03-14T02:28:59;99811.28;;;12.02;69.10
23427;BME280;41148;45.420;10.952;2023-03-14T02:31:26;99804.66;;;11.92;69.44
23427;BME280;41148;45.420;10.952;2023-03-14T02:33:55;99805.88;;;11.85;69.56
23427;BME280;41148;45.420;10.952;2023-03-14T02:36:23;99794.22;;;11.88;69.15
23427;BME280;41148;45.420;10.952;2023-03-14T02:39:00;99790.78;;;12.03;68.83
23427;BME280;41148;45.420;10.952;2023-03-14T02:41:30;99795.69;;;12.12;68.49
23427;BME280;41148;45.420;10.952;2023-03-14T02:44:02;99795.84;;;12.09;68.16
23427;BME280;41148;45.420;10.952;2023-03-14T02:46:31;99814.53;;;12.09;68.25
23427;BME280;41148;45.420;10.952;2023-03-14T02:49:03;99803.94;;;12.08;67.82
23427;BME280;41148;45.420;10.952;2023-03-14T02:51:32;99778.31;;;12.03;67.50
23427;BME280;41148;45.420;10.952;2023-03-14T02:54:00;99802.47;;;12.19;67.01
23427;BME280;41148;45.420;10.952;2023-03-14T02:56:28;99781.63;;;12.09;66.67
23427;BME280;41148;45.420;10.952;2023-03-14T02:58:55;99773.16;;;12.18;66.56
23427;BME280;41148;45.420;10.952;2023-03-14T03:01:48;99767.09;;;12.14;66.83
23427;BME280;41148;45.420;10.952;2023-03-14T03:04:15;99800.44;;;12.06;66.69
23427;BME280;41148;45.420;10.952;2023-03-14T03:06:45;99791.13;;;12.14;66.68
23427;BME280;41148;45.420;10.952;2023-03-14T03:09:14;99765.88;;;12.21;66.28
23427;BME280;41148;45.420;10.952;2023-03-14T03:11:42;99752.03;;;12.13;66.59
23427;BME280;41148;45.420;10.952;2023-03-14T03:14:15;99759.94;;;12.15;66.44
23427;BME280;41148;45.420;10.952;2023-03-14T03:16:42;99760.34;;;12.07;66.32
23427;BME280;41148;45.420;10.952;2023-03-14T03:19:10;99775.25;;;12.11;66.47
23427;BME280;41148;45.420;10.952;2023-03-14T03:21:37;99763.03;;;12.24;65.71
23427;BME280;41148;45.420;10.952;2023-03-14T03:24:05;99750.00;;;12.18;65.33
23427;BME280;41148;45.420;10.952;2023-03-14T03:26:35;99740.09;;;12.20;65.29
23427;BME280;41148;45.420;10.952;2023-03-14T03:29:05;99735.06;;;12.14;65.17
23427;BME280;41148;45.420;10.952;2023-03-14T03:31:32;99711.75;;;12.18;65.36
23427;BME280;41148;45.420;10.952;2023-03-14T03:34:00;99678.97;;;12.14;65.60
23427;BME280;41148;45.420;10.952;2023-03-14T03:36:28;99652.38;;;12.13;65.30
23427;BME280;41148;45.420;10.952;2023-03-14T03:38:59;99669.50;;;12.09;65.51
23427;BME280;41148;45.420;10.952;2023-03-14T03:41:26;99656.22;;;12.07;65.40
23427;BME280;41148;45.420;10.952;2023-03-14T03:43:54;99671.38;;;12.07;65.69
23427;BME280;41148;45.420;10.952;2023-03-14T03:46:22;99667.78;;;12.08;65.40
23427;BME280;41148;45.420;10.952;2023-03-14T03:48:55;99655.28;;;12.08;65.40
23427;BME280;41148;45.420;10.952;2023-03-14T03:51:22;99666.03;;;12.07;65.57
23427;BME280;41148;45.420;10.952;2023-03-14T03:53:50;99674.84;;;12.09;65.50
23427;BME280;41148;45.420;10.952;2023-03-14T03:56:24;99665.88;;;12.10;65.72
23427;BME280;41148;45.420;10.952;2023-03-14T03:58:51;99661.03;;;12.18;65.80
23427;BME280;41148;45.420;10.952;2023-03-14T04:01:19;99675.00;;;12.23;65.37
23427;BME280;41148;45.420;10.952;2023-03-14T04:03:49;99656.53;;;12.18;66.04
23427;BME280;41148;45.420;10.952;2023-03-14T04:06:18;99648.38;;;12.21;66.16
23427;BME280;41148;45.420;10.952;2023-03-14T04:08:48;99653.97;;;12.17;66.23
23427;BME280;41148;45.420;10.952;2023-03-14T04:11:30;99641.53;;;12.33;65.57
23427;BME280;41148;45.420;10.952;2023-03-14T04:14:11;99629.50;;;12.24;65.89
23427;BME280;41148;45.420;10.952;2023-03-14T04:16:39;99605.81;;;12.18;65.68
23427;BME280;41148;45.420;10.952;2023-03-14T04:19:14;99617.56;;;12.14;65.68
23427;BME280;41148;45.420;10.952;2023-03-14T04:21:41;99618.53;;;12.13;65.99
23427;BME280;41148;45.420;10.952;2023-03-14T04:24:13;99606.66;;;12.01;66.77
23427;BME280;41148;45.420;10.952;2023-03-14T04:26:42;99587.91;;;12.03;66.94
23427;BME280;41148;45.420;10.952;2023-03-14T04:29:10;99565.28;;;11.93;67.34
23427;BME280;41148;45.420;10.952;2023-03-14T04:31:40;99585.31;;;12.01;67.41
23427;BME280;41148;45.420;10.952;2023-03-14T04:34:08;99599.53;;;12.02;67.33
23427;BME280;41148;45.420;10.952;2023-03-14T04:36:42;99591.34;;;12.05;67.30
23427;BME280;41148;45.420;10.952;2023-03-14T04:39:14;99585.16;;;12.04;67.66
23427;BME280;41148;45.420;10.952;2023-03-14T04:41:49;99585.97;;;12.07;67.47
23427;BME280;41148;45.420;10.952;2023-03-14T04:44:18;99589.53;;;12.06;67.25
23427;BME280;41148;45.420;10.952;2023-03-14T04:46:45;99563.88;;;12.03;67.47
23427;BME280;41148;45.420;10.952;2023-03-14T04:49:13;99565.13;;;12.13;67.14
23427;BME280;41148;45.420;10.952;2023-03-14T04:51:41;99552.25;;;12.21;66.77
23427;BME280;41148;45.420;10.952;2023-03-14T04:54:09;99569.59;;;12.13;67.25
23427;BME280;41148;45.420;10.952;2023-03-14T04:56:37;99560.56;;;12.15;67.41
23427;BME280;41148;45.420;10.952;2023-03-14T04:59:04;99547.84;;;12.20;66.99
23427;BME280;41148;45.420;10.952;2023-03-14T05:01:35;99533.00;;;12.15;66.80
23427;BME280;41148;45.420;10.952;2023-03-14T05:04:20;99532.56;;;12.07;67.39
23427;BME280;41148;45.420;10.952;2023-03-14T05:06:56;99520.47;;;11.99;67.07
23427;BME280;41148;45.420;10.952;2023-03-14T05:09:46;99535.53;;;12.00;67.36
23427;BME280;41148;45.420;10.952;2023-03-14T05:12:25;99518.75;;;11.98;67.83
23427;BME280;41148;45.420;10.952;2023-03-14T05:15:07;99508.06;;;11.98;67.94
23427;BME280;41148;45.420;10.952;2023-03-14T05:17:58;99485.59;;;12.02;67.87
23427;BME280;41148;45.420;10.952;2023-03-14T05:20:44;99491.56;;;12.08;67.74
23427;BME280;41148;45.420;10.952;2023-03-14T05:23:46;99510.63;;;12.17;67.78
23427;BME280;41148;45.420;10.952;2023-03-14T05:26:31;99486.75;;;12.14;68.18
23427;BME280;41148;45.420;10.952;2023-03-14T05:29:05;99484.16;;;12.13;68.25
23427;BME280;41148;45.420;10.952;2023-03-14T05:31:51;99481.78;;;12.24;68.02
23427;BME280;41148;45.420;10.952;2023-03-14T05:34:37;99476.97;;;12.30;67.74
23427;BME280;41148;45.420;10.952;2023-03-14T05:37:27;99463.09;;;12.24;67.92
23427;BME280;41148;45.420;10.952;2023-03-14T05:40:16;99466.97;;;12.18;68.26
23427;BME280;41148;45.420;10.952;2023-03-14T05:43:06;99474.34;;;12.13;69.04
23427;BME280;41148;45.420;10.952;2023-03-14T05:45:35;99509.91;;;12.14;69.22
23427;BME280;41148;45.420;10.952;2023-03-14T05:48:35;99546.81;;;12.06;69.90
23427;BME280;41148;45.420;10.952;2023-03-14T05:51:08;99562.78;;;12.07;69.99
23427;BME280;41148;45.420;10.952;2023-03-14T05:53:43;99563.50;;;11.93;71.36
23427;BME280;41148;45.420;10.952;2023-03-14T05:56:34;99597.00;;;11.82;74.04
23427;BME280;41148;45.420;10.952;2023-03-14T05:59:16;99608.53;;;11.82;76.58
23427;BME280;41148;45.420;10.952;2023-03-14T06:01:54;99604.41;;;11.75;77.48
23427;BME280;41148;45.420;10.952;2023-03-14T06:04:25;99617.94;;;11.53;81.96
23427;BME280;41148;45.420;10.952;2023-03-14T06:06:56;99627.06;;;11.49;85.16
23427;BME280;41148;45.420;10.952;2023-03-14T06:09:24;99625.78;;;11.39;90.23
23427;BME280;41148;45.420;10.952;2023-03-14T06:11:55;99606.69;;;11.29;87.63
23427;BME280;41148;45.420;10.952;2023-03-14T06:14:22;99607.13;;;11.20;88.26
23427;BME280;41148;45.420;10.952;2023-03-14T06:16:51;99607.53;;;11.30;89.26
23427;BME280;41148;45.420;10.952;2023-03-14T06:19:21;99595.53;;;11.21;91.31
23427;BME280;41148;45.420;10.952;2023-03-14T06:21:48;99570.38;;;11.08;92.05
23427;BME280;41148;45.420;10.952;2023-03-14T06:24:16;99570.69;;;11.02;93.33
23427;BME280;41148;45.420;10.952;2023-03-14T06:26:47;99555.31;;;11.07;93.26
23427;BME280;41148;45.420;10.952;2023-03-14T06:29:14;99562.09;;;10.95;93.41
23427;BME280;41148;45.420;10.952;2023-03-14T06:31:42;99562.09;;;10.95;92.89
23427;BME280;41148;45.420;10.952;2023-03-14T06:34:10;99555.25;;;10.89;94.20
23427;BME280;41148;45.420;10.952;2023-03-14T06:36:39;99566.75;;;10.90;94.50
23427;BME280;41148;45.420;10.952;2023-03-14T06:39:08;99567.84;;;10.86;94.66
23427;BME280;41148;45.420;10.952;2023-03-14T06:41:39;99579.31;;;10.88;93.44
23427;BME280;41148;45.420;10.952;2023-03-14T06:44:08;99571.09;;;10.93;93.07
23427;BME280;41148;45.420;10.952;2023-03-14T06:46:37;99569.44;;;10.90;95.75
23427;BME280;41148;45.420;10.952;2023-03-14T06:49:04;99589.31;;;10.83;96.04
23427;BME280;41148;45.420;10.952;2023-03-14T06:51:33;99588.31;;;10.85;95.78
23427;BME280;41148;45.420;10.952;2023-03-14T06:54:04;99568.53;;;10.91;96.99
23427;BME280;41148;45.420;10.952;2023-03-14T06:56:31;99552.66;;;10.88;97.44
23427;BME280;41148;45.420;10.952;2023-03-14T06:58:59;99565.00;;;10.91;99.06
23427;BME280;41148;45.420;10.952;2023-03-14T07:01:30;99557.72;;;10.94;98.54
23427;BME280;41148;45.420;10.952;2023-03-14T07:04:04;99552.16;;;10.99;97.88
23427;BME280;41148;45.420;10.952;2023-03-14T07:06:34;99544.47;;;10.93;98.79
23427;BME280;41148;45.420;10.952;2023-03-14T07:09:01;99547.31;;;10.88;98.65
23427;BME280;41148;45.420;10.952;2023-03-14T07:11:55;99539.22;;;10.91;99.83
23427;BME280;41148;45.420;10.952;2023-03-14T07:14:23;99534.50;;;10.96;97.53
23427;BME280;41148;45.420;10.952;2023-03-14T07:16:50;99528.91;;;11.02;96.50
23427;BME280;41148;45.420;10.952;2023-03-14T07:19:19;99526.31;;;11.01;96.03
23427;BME280;41148;45.420;10.952;2023-03-14T07:21:46;99520.16;;;10.99;97.03
23427;BME280;41148;45.420;10.952;2023-03-14T07:24:16;99517.72;;;11.13;94.62
23427;BME280;41148;45.420;10.952;2023-03-14T07:26:43;99520.47;;;11.11;94.82
23427;BME280;41148;45.420;10.952;2023-03-14T07:29:11;99510.66;;;11.12;97.03
23427;BME280;41148;45.420;10.952;2023-03-14T07:31:40;99517.28;;;11.03;96.15
23427;BME280;41148;45.420;10.952;2023-03-14T07:34:07;99520.47;;;11.11;95.32
23427;BME280;41148;45.420;10.952;2023-03-14T07:36:38;99525.88;;;11.10;96.15
23427;BME280;41148;45.420;10.952;2023-03-14T07:39:30;99528.28;;;11.14;95.75
23427;BME280;41148;45.420;10.952;2023-03-14T07:42:03;99517.47;;;11.17;95.20
23427;BME280;41148;45.420;10.952;2023-03-14T07:44:46;99522.44;;;11.25;94.00
23427;BME280;41148;45.420;10.952;2023-03-14T07:47:14;99533.97;;;11.26;93.90
23427;BME280;41148;45.420;10.952;2023-03-14T07:49:41;99522.69;;;11.21;94.63
23427;BME280;41148;45.420;10.952;2023-03-14T07:52:08;99521.81;;;11.20;94.59
23427;BME280;41148;45.420;10.952;2023-03-14T07:54:36;99520.78;;;11.23;95.92
23427;BME280;41148;45.420;10.952;2023-03-14T07:57:03;99527.06;;;11.22;94.55
23427;BME280;41148;45.420;10.952;2023-03-14T07:59:31;99529.66;;;11.23;94.91
23427;BME280;41148;45.420;10.952;2023-03-14T08:01:58;99518.81;;;11.26;96.77
23427;BME280;41148;45.420;10.952;2023-03-14T08:04:25;99515.63;;;11.20;98.23
23427;BME280;41148;45.420;10.952;2023-03-14T08:06:54;99519.03;;;11.04;98.86
23427;BME280;41148;45.420;10.952;2023-03-14T08:09:21;99499.94;;;10.95;100.00
23427;BME280;41148;45.420;10.952;2023-03-14T08:11:49;99515.84;;;10.96;100.00
23427;BME280;41148;45.420;10.952;2023-03-14T08:14:16;99519.97;;;11.03;100.00
23427;BME280;41148;45.420;10.952;2023-03-14T08:16:43;99514.72;;;11.02;100.00
23427;BME280;41148;45.420;10.952;2023-03-14T08:19:10;99509.91;;;10.91;100.00
23427;BME280;41148;45.420;10.952;2023-03-14T08:21:38;99524.38;;;10.85;100.00
23427;BME280;41148;45.420;10.952;2023-03-14T08:24:05;99529.97;;;10.79;100.00
23427;BME280;41148;45.420;10.952;2023-03-14T08:26:33;99534.66;;;10.74;100.00
23427;BME280;41148;45.420;10.952;2023-03-14T08:29:00;99524.88;;;10.75;100.00
23427;BME280;41148;45.420;10.952;2023-03-14T08:31:28;99518.84;;;10.71;100.00
23427;BME280;41148;45.420;10.952;2023-03-14T08:33:58;99521.44;;;10.73;100.00
23427;BME280;41148;45.420;10.952;2023-03-14T08:36:25;99527.53;;;10.75;100.00
23427;BME280;41148;45.420;10.952;2023-03-14T08:38:53;99512.25;;;10.78;100.00
23427;BME280;41148;45.420;10.952;2023-03-14T08:41:21;99512.25;;;10.78;100.00
23427;BME280;41148;45.420;10.952;2023-03-14T08:43:48;99511.19;;;10.82;100.00
23427;BME280;41148;45.420;10.952;2023-03-14T08:46:16;99512.84;;;10.85;100.00
23427;BME280;41148;45.420;10.952;2023-03-14T08:48:43;99511.75;;;10.89;100.00
23427;BME280;41148;45.420;10.952;2023-03-14T08:51:13;99505.97;;;10.98;100.00
23427;BME280;41148;45.420;10.952;2023-03-14T08:53:41;99504.13;;;11.00;100.00
23427;BME280;41148;45.420;10.952;2023-03-14T08:56:09;99517.81;;;10.93;100.00
23427;BME280;41148;45.420;10.952;2023-03-14T08:58:37;99516.28;;;10.87;100.00
23427;BME280;41148;45.420;10.952;2023-03-14T09:01:05;99518.25;;;10.83;100.00
23427;BME280;41148;45.420;10.952;2023-03-14T09:03:33;99506.84;;;10.80;100.00
23427;BME280;41148;45.420;10.952;2023-03-14T09:06:05;99494.34;;;10.82;100.00
23427;BME280;41148;45.420;10.952;2023-03-14T09:08:32;99502.38;;;10.80;100.00
23427;BME280;41148;45.420;10.952;2023-03-14T09:11:02;99518.34;;;10.82;100.00
23427;BME280;41148;45.420;10.952;2023-03-14T09:13:29;99519.13;;;10.84;100.00
23427;BME280;41148;45.420;10.952;2023-03-14T09:15:56;99530.63;;;10.84;100.00
23427;BME280;41148;45.420;10.952;2023-03-14T09:18:24;99526.31;;;10.82;100.00
23427;BME280;41148;45.420;10.952;2023-03-14T09:20:52;99529.97;;;10.79;100.00
23427;BME280;41148;45.420;10.952;2023-03-14T09:23:19;99532.78;;;10.76;100.00
23427;BME280;41148;45.420;10.952;2023-03-14T09:25:46;99537.69;;;10.85;100.00
23427;BME280;41148;45.420;10.952;2023-03-14T09:28:13;99541.13;;;10.87;100.00
23427;BME280;41148;45.420;10.952;2023-03-14T09:30:41;99536.09;;;11.00;100.00
23427;BME280;41148;45.420;10.952;2023-03-14T09:33:08;99540.50;;;11.01;100.00
23427;BME280;41148;45.420;10.952;2023-03-14T09:35:36;99538.97;;;10.96;100.00
23427;BME280;41148;45.420;10.952;2023-03-14T09:38:03;99540.50;;;11.01;100.00
23427;BME280;41148;45.420;10.952;2023-03-14T09:40:35;99542.34;;;10.99;100.00
23427;BME280;41148;45.420;10.952;2023-03-14T09:43:02;99538.81;;;10.99;100.00
23427;BME280;41148;45.420;10.952;2023-03-14T09:45:35;99538.56;;;10.86;100.00
23427;BME280;41148;45.420;10.952;2023-03-14T09:48:04;99545.16;;;10.77;100.00
23427;BME280;41148;45.420;10.952;2023-03-14T09:50:40;99555.97;;;10.74;100.00
23427;BME280;41148;45.420;10.952;2023-03-14T09:53:17;99556.69;;;10.78;100.00
23427;BME280;41148;45.420;10.952;2023-03-14T09:55:46;99533.28;;;10.84;100.00
23427;BME280;41148;45.420;10.952;2023-03-14T09:58:23;99532.28;;;10.68;100.00
23427;BME280;41148;45.420;10.952;2023-03-14T10:00:56;99542.16;;;10.66;100.00
23427;BME280;41148;45.420;10.952;2023-03-14T10:03:34;99549.34;;;10.64;100.00
23427;BME280;41148;45.420;10.952;2023-03-14T10:06:02;99539.06;;;10.75;100.00
23427;BME280;41148;45.420;10.952;2023-03-14T10:08:31;99541.56;;;10.78;100.00
23427;BME280;41148;45.420;10.952;2023-03-14T10:10:59;99550.00;;;10.69;100.00
23427;BME280;41148;45.420;10.952;2023-03-14T10:13:27;99557.56;;;10.78;100.00
23427;BME280;41148;45.420;10.952;2023-03-14T10:18:29;99540.19;;;10.70;100.00
23427;BME280;41148;45.420;10.952;2023-03-14T10:21:05;99525.66;;;10.77;100.00
23427;BME280;41148;45.420;10.952;2023-03-14T10:23:34;99532.50;;;10.64;100.00
23427;BME280;41148;45.420;10.952;2023-03-14T10:26:12;99540.34;;;10.67;100.00
23427;BME280;41148;45.420;10.952;2023-03-14T10:29:03;99524.53;;;10.64;100.00
23427;BME280;41148;45.420;10.952;2023-03-14T10:31:51;99523.50;;;10.66;100.00
23427;BME280;41148;45.420;10.952;2023-03-14T10:34:29;99528.31;;;10.58;100.00
23427;BME280;41148;45.420;10.952;2023-03-14T10:36:59;99525.56;;;10.41;100.00
23427;BME280;41148;45.420;10.952;2023-03-14T10:42:16;99490.44;;;10.32;100.00
23427;BME280;41148;45.420;10.952;2023-03-14T10:44:49;99498.91;;;10.42;100.00
23427;BME280;41148;45.420;10.952;2023-03-14T10:47:22;99488.50;;;10.36;100.00
23427;BME280;41148;45.420;10.952;2023-03-14T10:49:51;99492.97;;;10.36;100.00
23427;BME280;41148;45.420;10.952;2023-03-14T10:52:28;99500.19;;;10.34;100.00
23427;BME280;41148;45.420;10.952;2023-03-14T10:55:12;99492.47;;;10.27;100.00
23427;BME280;41148;45.420;10.952;2023-03-14T10:57:41;99484.31;;;10.30;100.00
23427;BME280;41148;45.420;10.952;2023-03-14T11:00:29;99480.81;;;10.30;100.00
23427;BME280;41148;45.420;10.952;2023-03-14T11:03:12;99478.00;;;10.33;100.00
23427;BME280;41148;45.420;10.952;2023-03-14T11:08:23;99480.53;;;10.36;100.00
23427;BME280;41148;45.420;10.952;2023-03-14T11:11:02;99496.28;;;10.41;100.00
23427;BME280;41148;45.420;10.952;2023-03-14T11:16:49;99500.31;;;10.49;100.00
23427;BME280;41148;45.420;10.952;2023-03-14T11:30:18;99451.66;;;10.65;100.00
23427;BME280;41148;45.420;10.952;2023-03-14T11:32:50;99443.44;;;10.69;100.00
23427;BME280;41148;45.420;10.952;2023-03-14T11:35:50;99454.50;;;10.62;100.00
23427;BME280;41148;45.420;10.952;2023-03-14T11:40:51;99454.41;;;10.63;100.00
23427;BME280;41148;45.420;10.952;2023-03-14T11:43:29;99453.47;;;10.64;100.00
23427;BME280;41148;45.420;10.952;2023-03-14T11:46:08;99456.22;;;10.63;100.00
23427;BME280;41148;45.420;10.952;2023-03-14T11:48:45;99466.63;;;10.67;100.00
23427;BME280;41148;45.420;10.952;2023-03-14T11:51:24;99452.88;;;10.76;100.00
23427;BME280;41148;45.420;10.952;2023-03-14T11:54:19;99447.38;;;10.79;100.00
23427;BME280;41148;45.420;10.952;2023-03-14T11:56:53;99450.69;;;10.84;100.00
23427;BME280;41148;45.420;10.952;2023-03-14T11:59:31;99435.50;;;10.86;100.00
23427;BME280;41148;45.420;10.952;2023-03-14T12:02:10;99428.16;;;10.92;100.00
23427;BME280;41148;45.420;10.952;2023-03-14T12:13:13;99416.75;;;10.88;100.00
23427;BME280;41148;45.420;10.952;2023-03-14T12:15:53;99417.94;;;10.82;100.00
23427;BME280;41148;45.420;10.952;2023-03-14T12:18:30;99420.63;;;10.82;100.00
23427;BME280;41148;45.420;10.952;2023-03-14T12:21:01;99422.19;;;10.86;100.00
23427;BME280;41148;45.420;10.952;2023-03-14T12:23:37;99413.53;;;11.00;100.00
23427;BME280;41148;45.420;10.952;2023-03-14T12:26:15;99402.44;;;10.91;100.00
23427;BME280;41148;45.420;10.952;2023-03-14T12:28:49;99396.31;;;10.88;100.00
23427;BME280;41148;45.420;10.952;2023-03-14T12:34:34;99380.13;;;10.93;100.00
23427;BME280;41148;45.420;10.952;2023-03-14T12:40:03;99373.75;;;10.96;100.00
23427;BME280;41148;45.420;10.952;2023-03-14T12:42:51;99370.72;;;11.03;100.00
23427;BME280;41148;45.420;10.952;2023-03-14T12:45:34;99369.59;;;11.07;100.00
23427;BME280;41148;45.420;10.952;2023-03-14T12:48:20;99357.88;;;11.11;100.00
23427;BME280;41148;45.420;10.952;2023-03-14T12:51:01;99347.50;;;11.05;100.00
23427;BME280;41148;45.420;10.952;2023-03-14T13:01:55;99353.81;;;11.37;100.00
23427;BME280;41148;45.420;10.952;2023-03-14T13:04:54;99339.28;;;11.60;100.00
23427;BME280;41148;45.420;10.952;2023-03-14T13:10:25;99332.75;;;11.33;100.00
23427;BME280;41148;45.420;10.952;2023-03-14T13:13:11;99350.59;;;11.48;100.00
23427;BME280;41148;45.420;10.952;2023-03-14T13:15:45;99353.50;;;11.61;100.00
23427;BME280;41148;45.420;10.952;2023-03-14T13:18:23;99343.09;;;11.72;100.00
23427;BME280;41148;45.420;10.952;2023-03-14T13:21:18;99345.78;;;11.72;100.00
23427;BME280;41148;45.420;10.952;2023-03-14T13:24:05;99342.34;;;11.70;100.00
23427;BME280;41148;45.420;10.952;2023-03-14T13:26:40;99333.91;;;11.78;100.00
23427;BME280;41148;45.420;10.952;2023-03-14T13:29:16;99322.69;;;11.71;100.00
23427;BME280;41148;45.420;10.952;2023-03-14T13:31:49;99315.66;;;11.70;100.00
23427;BME280;41148;45.420;10.952;2023-03-14T13:34:17;99327.41;;;11.83;100.00
23427;BME280;41148;45.420;10.952;2023-03-14T13:36:45;99320.34;;;11.82;100.00
23427;BME280;41148;45.420;10.952;2023-03-14T13:39:24;99335.84;;;11.91;100.00
23427;BME280;41148;45.420;10.952;2023-03-14T13:41:53;99326.38;;;12.01;100.00
23427;BME280;41148;45.420;10.952;2023-03-14T13:44:25;99327.59;;;12.12;100.00
23427;BME280;41148;45.420;10.952;2023-03-14T13:46:58;99313.31;;;12.13;100.00
23427;BME280;41148;45.420;10.952;2023-03-14T13:49:27;99318.13;;;12.22;100.00
23427;BME280;41148;45.420;10.952;2023-03-14T13:51:56;99310.78;;;12.25;100.00
23427;BME280;41148;45.420;10.952;2023-03-14T13:54:25;99312.34;;;12.29;100.00
23427;BME280;41148;45.420;10.952;2023-03-14T13:57:01;99328.28;;;12.47;100.00
23427;BME280;41148;45.420;10.952;2023-03-14T13:59:31;99325.09;;;12.40;100.00
23427;BME280;41148;45.420;10.952;2023-03-14T14:02:19;99316.13;;;12.41;100.00
23427;BME280;41148;45.420;10.952;2023-03-14T14:04:47;99319.03;;;12.52;100.00
23427;BME280;41148;45.420;10.952;2023-03-14T14:07:16;99299.38;;;12.53;100.00
23427;BME280;41148;45.420;10.952;2023-03-14T14:09:47;99298.09;;;12.60;100.00
23427;BME280;41148;45.420;10.952;2023-03-14T14:15:11;99288.69;;;12.53;100.00
23427;BME280;41148;45.420;10.952;2023-03-14T14:17:44;99286.63;;;12.58;100.00
23427;BME280;41148;45.420;10.952;2023-03-14T14:20:20;99281.66;;;12.52;100.00